• Join FlightAware (Why Join?)
  • Login
  • US Flag 
06:02AM EDT


 

Airport Tracker/Info


-or-


 

Live Flight TrackerFlight Track Log ✈ FLG3785 ✈ 07-May-2013 ✈ KCLE - KMSP

Flight Track Log - Related Links

Times and Time Zones

All times are in EDT time to prevent confusion due to time zone crossing. See the FLG3785 flight status page for this flight to view local times or setup timezone preferences in your user account.

Time Position Orientation Groundspeed Altitude Reporting Facility
EDT Latitude Longitude Course Direction KTS MPH feet Rate Location/Type
11:32AM 41.4194 -81.8375 261° West 164 189 1,800  Level Cleveland Center
11:32AM 41.4464 -81.8408 355° North 189 217 2,800 2,100 Climbing Cleveland Center
11:32AM 41.4631 -81.8439 352° North 229 264 3,400 2,040 Climbing Cleveland Center
11:33AM 41.4961 -81.8861 316° Northwest 252 290 4,900 2,280 Climbing Cleveland Center
11:34AM 41.5342 -82.0033 293° West 293 337 8,000 2,520 Climbing Cleveland Center
11:35AM 41.3183 -82.4268 252° West  Level FlightAware Approximate
11:35AM 41.5286 -82.1086 266° West 310 357 10,600  Level Cleveland Center
11:36AM 41.3000 -82.5713 270° West  Level FlightAware Approximate
11:36AM 41.5000 -82.2217 251° West 310 357 11,800  Level Cleveland Center
11:37AM 41.2757 -82.7153 261° West  Level FlightAware Approximate
11:37AM 41.4981 -82.3547 269° West 348 400 13,900  Level Cleveland Center
11:38AM 41.4939 -82.4903 268° West 366 421 15,600 1,620 Climbing Cleveland Center
11:39AM 41.4892 -82.6317 267° West 372 428 17,200 1,380 Climbing Cleveland Center
11:40AM 41.4844 -82.7728 267° West 379 436 18,400 1,200 Climbing Cleveland Center
11:41AM 41.4794 -82.9306 268° West 390 449 19,700 1,200 Climbing Cleveland Center
11:42AM 41.4719 -83.0800 266° West 390 449 20,800 960 Climbing Cleveland Center
11:43AM 41.4669 -83.2156 267° West 402 463 21,700 900 Climbing Cleveland Center
11:44AM 41.4592 -83.3650 266° West 407 468 22,600 840 Climbing Cleveland Center
11:45AM 41.4533 -83.5200 267° West 412 474 23,400 720 Climbing Cleveland Center
11:46AM 41.4492 -83.6778 268° West 422 486 24,100 720 Climbing Cleveland Center
11:47AM 41.4572 -83.8361 274° West 427 491 24,900 780 Climbing Cleveland Center
11:50AM 41.4742 -84.2050 274° West 432 497 26,800 780 Climbing Chicago Center
11:51AM 41.4800 -84.3644 273° West 432 497 27,600 540 Climbing Chicago Center
11:52AM 41.4847 -84.5244 272° West 433 498 28,000 180 Climbing Chicago Center
11:53AM 41.4900 -84.6911 272° West 448 516 28,000  Level Chicago Center
11:54AM 41.4969 -84.8956 273° West 458 527 28,000  Level Chicago Center
11:55AM 41.5022 -85.0675 272° West 463 533 28,000  Level Chicago Center
11:56AM 41.5056 -85.2431 272° West 463 533 28,000  Level Chicago Center
11:57AM 41.5094 -85.4147 272° West 461 531 28,000  Level Chicago Center
11:58AM 41.5150 -85.5853 273° West 449 517 28,000  Level Chicago Center
11:59AM 41.5183 -85.7536 272° West 449 517 28,000  Level Chicago Center
12:00PM 41.5222 -85.9194 272° West 445 512 28,000  Level Chicago Center
12:01PM 41.5583 -86.0736 287° West 449 517 28,000  Level Chicago Center
12:02PM 41.6447 -86.1908 315° West 444 511 28,000  Level Chicago Center
12:03PM 41.7475 -86.3336 314° West 442 509 28,000  Level Chicago Center
12:04PM 41.8350 -86.4542 314° West 450 518 28,000  Level Chicago Center
12:05PM 41.9231 -86.5764 314° West 453 521 28,000  Level Chicago Center
12:06PM 42.0197 -86.7100 314° West 460 529 28,000  Level Chicago Center
12:07PM 42.1072 -86.8325 314° West 459 528 28,000  Level Chicago Center
12:08PM 42.1953 -86.9564 314° West 461 531 28,000  Level Chicago Center
12:09PM 42.2808 -87.0775 314° West 453 521 28,000  Level Chicago Center
12:10PM 42.3856 -87.2239 314° West 456 525 28,000  Level Chicago Center
12:11PM 42.4719 -87.3486 313° West 458 527 28,000  Level Chicago Center
12:12PM 42.5594 -87.4739 314° West 461 531 28,000  Level Chicago Center
12:14PM 42.6553 -87.6114 313° West 466 536 28,000 120 Level Chicago Center
12:15PM 42.7444 -87.7400 313° West 467 537 28,300 420 Climbing Chicago Center
12:16PM 42.8331 -87.8694 313° West 466 536 28,900 300 Climbing Chicago Center
12:17PM 42.9200 -87.9978 313° West 462 532 29,000  Climbing Chicago Center
12:18PM 43.0103 -88.1292 313° West 470 541 29,000  Level Chicago Center
12:19PM 43.1161 -88.2836 313° West 474 545 29,000 120 Level Chicago Center
12:20PM 43.2003 -88.4278 309° West 479 551 29,300 420 Climbing Chicago Center
12:21PM 43.2833 -88.5694 309° West 472 543 29,900 300 Climbing Chicago Center
12:22PM 43.3672 -88.7131 309° West 470 541 30,000  Climbing Chicago Center
12:23PM 43.4508 -88.8575 309° West 476 548 30,000  Level Chicago Center
12:24PM 43.5336 -89.0011 309° West 476 548 30,000  Level Chicago Center
12:25PM 43.6164 -89.1439 309° West 475 547 30,000  Level Chicago Center
12:26PM 43.6847 -89.2636 308° West 475 547 30,000  Level Minneapolis Center
12:27PM 43.7653 -89.4083 308° West 474 545 30,000  Level Minneapolis Center
12:28PM 43.8619 -89.5761 309° West 478 550 30,000  Level Minneapolis Center
12:29PM 43.9569 -89.7461 308° West 479 551 30,000  Level Minneapolis Center
12:30PM 44.0383 -89.8919 308° West 479 551 30,000  Level Minneapolis Center
12:31PM 44.1186 -90.0381 307° West 477 549 30,000  Level Minneapolis Center
12:32PM 44.1878 -90.2303 297° West 474 545 30,000  Level Minneapolis Center
12:33PM 44.2447 -90.3931 296° West 470 541 30,000  Level Minneapolis Center
12:34PM 44.3011 -90.5592 295° West 471 542 30,000 -120 Level Minneapolis Center
12:35PM 44.3564 -90.7222 295° West 465 535 29,800 -1,020 Descending Minneapolis Center
12:36PM 44.4119 -90.8844 296° West 462 532 28,000 -2,040 Descending Minneapolis Center
12:37PM 44.4708 -91.0581 295° West 456 525 25,700 -2,100 Descending Minneapolis Center
12:39PM 44.5289 -91.2306 295° West 435 501 23,300 -1,920 Descending Minneapolis Center
12:40PM 44.5753 -91.3703 295° West 415 478 21,400 -2,040 Descending Minneapolis Center
12:41PM 44.6292 -91.5367 295° West 400 460 19,100 -1,980 Descending Minneapolis Center
12:42PM 44.6731 -91.6703 295° West 388 447 17,400 -1,740 Descending Minneapolis Center
12:43PM 44.7156 -91.7975 295° West 372 428 15,600 -1,740 Descending Minneapolis Center
12:44PM 44.7542 -91.9175 294° West 348 400 13,800 -1,620 Descending Minneapolis Center
12:45PM 44.8014 -92.0614 295° West 340 391 12,000 -1,560 Descending Minneapolis Center
12:46PM 44.8467 -92.2019 294° West 332 382 10,300 -1,020 Descending Minneapolis Center
12:47PM 44.8728 -92.3358 285° West 332 382 10,000 -180 Descending Minneapolis Center
12:48PM 44.8267 -92.4450 239° Southwest 325 374 10,000 -480 Level Minneapolis Center
12:49PM 44.7828 -92.5381 236° Southwest 292 336 9,100 -540 Descending Minneapolis Center
12:50PM 44.7394 -92.6308 237° Southwest 268 308 9,000 -360 Descending Minneapolis Center
12:51PM 44.7356 -92.7317 267° West 257 296 8,400 -780 Descending Minneapolis Center
12:52PM 44.7347 -92.8328 269° West 243 280 7,500 -960 Descending Minneapolis Center
12:53PM 44.7497 -92.9186 284° West 235 270 6,500 -1,440 Descending Minneapolis Center
12:54PM 44.7853 -92.9975 302° West 222 255 4,600 -1,500 Descending Minneapolis Center
12:55PM 44.8081 -93.0506 301° West 212 244 3,400 -1,200 Descending Minneapolis Center